Flight Track Log - Related Links

Times and Time Zones

All times are in EDT time to prevent confusion due to time zone crossing. See the N965LG flight status page for this flight to view local times or setup timezone preferences in your user account.

Time Position Orientation Groundspeed Altitude Reporting Facility
EDT Latitude Longitude Course Direction KTS MPH feet Rate Location/Type
Mon 05:15:20 PM 32.2725 -90.7700 68° East 225 259 6,100  Level Memphis Center
Mon 05:16:20 PM 32.2936 -90.7211 63° Northeast 187 215 7,800 1,700 Climbing Memphis Center
Mon 05:17:20 PM 32.3167 -90.6694 62° Northeast 174 200 9,500 1,700 Climbing Memphis Center
Mon 05:18:20 PM 32.3314 -90.6156 72° East 169 194 11,200 1,600 Climbing Memphis Center
Mon 05:19:20 PM 32.3522 -90.5689 62° Northeast 169 194 12,700 1,450 Climbing Memphis Center
Mon 05:20:00 PM 32.3683 -90.5119 68° East  Level FlightAware Approximate
Mon 05:20:20 PM 32.3753 -90.5122 64° Northeast 174 200 14,100  Level Memphis Center
Mon 05:21:20 PM 32.3881 -90.4558 75° East 179 206 15,500 1,350 Climbing Memphis Center
Mon 05:22:20 PM 32.3858 -90.3892 92° East 179 206 16,800 1,150 Climbing Memphis Center
Mon 05:23:20 PM 32.3881 -90.3228 88° East 190 219 17,800 800 Climbing Memphis Center
Mon 05:24:20 PM 32.3858 -90.2517 92° East 201 231 18,400 550 Climbing Memphis Center
Mon 05:25:20 PM 32.3858 -90.1728 90° East 214 246 18,900 300 Climbing Memphis Center
Mon 05:26:20 PM 32.3856 -90.0942 90° East 227 261 19,000 50 Climbing Memphis Center
Mon 05:27:20 PM 32.3853 -90.0056 90° East 246 283 19,000  Level Memphis Center
Mon 05:28:20 PM 32.3872 -89.9194 88° East 257 296 19,000  Level Memphis Center
Mon 05:29:20 PM 32.3869 -89.8236 90° East 257 296 19,000  Level Memphis Center
Mon 05:30:20 PM 32.3864 -89.7375 90° East 257 296 19,000  Level Memphis Center
Mon 05:31:20 PM 32.3861 -89.6514 90° East 257 296 19,000  Level Memphis Center
Mon 05:32:20 PM 32.3856 -89.5653 90° East 252 290 19,000  Level Memphis Center
Mon 05:33:20 PM 32.3850 -89.4817 90° East 252 290 19,000  Level Memphis Center
Mon 05:34:20 PM 32.3842 -89.3931 91° East 252 290 19,000  Level Memphis Center
Mon 05:35:20 PM 32.3856 -89.3094 89° East 252 290 19,000  Level Memphis Center
Mon 05:36:20 PM 32.3850 -89.2258 90° East 252 290 19,000  Level Memphis Center
Mon 05:37:20 PM 32.3842 -89.1397 91° East 252 290 19,000  Level Memphis Center
Mon 05:38:20 PM 32.3833 -89.0583 91° East 252 290 19,000  Level Memphis Center
Mon 05:39:20 PM 32.3822 -88.9722 91° East 252 290 19,000  Level Memphis Center
Mon 05:40:20 PM 32.3814 -88.8886 91° East 252 290 19,000  Level Memphis Center
Mon 05:42:20 PM 32.3856 -88.7286 88° East 252 290 19,000  Level Memphis Center
Mon 05:44:08 PM 32.3975 -88.5872 84° East 244 281 19,000  Level Atlanta Center
Mon 05:45:08 PM 32.4047 -88.5014 84° East 244 281 19,000  Level Atlanta Center
Mon 05:46:08 PM 32.4119 -88.4181 84° East 250 288 19,000  Level Atlanta Center
Mon 05:47:08 PM 32.4192 -88.3347 84° East 255 293 19,000  Level Atlanta Center
Mon 05:48:08 PM 32.4239 -88.2514 86° East 255 293 19,000  Level Atlanta Center
Mon 05:49:08 PM 32.4331 -88.1658 83° East 255 293 19,000  Level Atlanta Center
Mon 05:50:08 PM 32.4403 -88.0800 84° East 255 293 19,000  Level Atlanta Center
Mon 05:51:08 PM 32.4450 -87.9964 86° East 250 288 19,000  Level Atlanta Center
Mon 05:52:08 PM 32.4519 -87.9106 85° East 255 293 19,000  Level Atlanta Center
Mon 05:53:08 PM 32.4608 -87.8272 83° East 255 293 19,000  Level Atlanta Center
Mon 05:54:08 PM 32.4656 -87.7389 86° East 255 293 19,000  Level Atlanta Center
Mon 05:55:08 PM 32.4747 -87.6433 83° East 255 293 19,000  Level Atlanta Center
Mon 05:56:08 PM 32.4772 -87.5497 88° East 270 311 19,000 -150 Level Atlanta Center
Mon 05:57:08 PM 32.4819 -87.4589 86° East 270 311 18,700 -400 Descending Atlanta Center
Mon 05:58:08 PM 32.4822 -87.3678 90° East 270 311 18,200 -550 Descending Atlanta Center
Mon 05:59:08 PM 32.4869 -87.2769 86° East 270 311 17,600 -650 Descending Atlanta Center
Mon 06:00:08 PM 32.4914 -87.1858 87° East 270 311 16,900 -750 Descending Atlanta Center
Mon 06:01:08 PM 32.4997 -87.0975 84° East 270 311 16,100 -750 Descending Atlanta Center
Mon 06:02:08 PM 32.5103 -87.0069 82° East 270 311 15,400 -700 Descending Atlanta Center
Mon 06:03:08 PM 32.5186 -86.9233 83° East 270 311 14,700 -700 Descending Atlanta Center
Mon 06:04:08 PM 32.5228 -86.8372 87° East 265 305 14,000 -700 Descending Atlanta Center
Mon 06:05:08 PM 32.5308 -86.7514 84° East 265 305 13,300 -700 Descending Atlanta Center
Mon 06:06:08 PM 32.5369 -86.6678 85° East 259 298 12,600 -700 Descending Atlanta Center
Mon 06:07:08 PM 32.5447 -86.5917 83° East 254 292 11,900 -800 Descending Atlanta Center
Mon 06:08:08 PM 32.5528 -86.5081 83° East 254 292 11,000 -900 Descending Atlanta Center
Mon 06:09:08 PM 32.5544 -86.4194 89° East 254 292 10,100 -900 Descending Atlanta Center
Mon 06:10:08 PM 32.5581 -86.3333 87° East 254 292 9,200 -782 Descending Atlanta Center
Mon 06:12:00 PM 32.5645 -86.1851 87° East  Level FlightAware Approximate
Mon 06:14:38 PM 32.5833 -85.9500 90° East 245 282 5,800  Level Atlanta TRACON
Mon 06:15:38 PM 32.5833 -85.8667 90° East 241 277 5,100 -400 Descending Atlanta TRACON
Mon 06:16:38 PM 32.5833 -85.8000 90° East 221 254 5,000 -158 Descending Atlanta TRACON
Mon 06:17:32 PM 32.6000 -85.7333 73° East 220 253 4,800 -222 Descending Atlanta TRACON
Mon 06:19:00 PM 32.6000 -85.6320 90° East  Level FlightAware Approximate

Login

Don't have an account? Register now (free) for customized features, flight alerts, and more!